sensor_id;sensor_type;location;lat;lon;timestamp;P1;durP1;ratioP1;P2;durP2;ratioP2
22549;SDS011;11441;57.164;-2.120;2023-04-15T00:00:55;42.90;;;8.07;;
22549;SDS011;11441;57.164;-2.120;2023-04-15T00:03:22;56.87;;;9.20;;
22549;SDS011;11441;57.164;-2.120;2023-04-15T00:05:50;49.37;;;8.13;;
22549;SDS011;11441;57.164;-2.120;2023-04-15T00:08:17;62.40;;;8.33;;
22549;SDS011;11441;57.164;-2.120;2023-04-15T00:10:44;93.03;;;10.00;;
22549;SDS011;11441;57.164;-2.120;2023-04-15T00:13:12;74.60;;;7.73;;
22549;SDS011;11441;57.164;-2.120;2023-04-15T00:15:38;131.80;;;10.83;;
22549;SDS011;11441;57.164;-2.120;2023-04-15T00:18:05;59.43;;;7.93;;
22549;SDS011;11441;57.164;-2.120;2023-04-15T00:20:35;103.90;;;8.97;;
22549;SDS011;11441;57.164;-2.120;2023-04-15T00:23:04;96.53;;;10.03;;
22549;SDS011;11441;57.164;-2.120;2023-04-15T00:25:31;89.38;;;9.60;;
22549;SDS011;11441;57.164;-2.120;2023-04-15T00:27:58;44.63;;;7.57;;
22549;SDS011;11441;57.164;-2.120;2023-04-15T00:30:25;18.57;;;7.03;;
22549;SDS011;11441;57.164;-2.120;2023-04-15T00:32:52;27.20;;;6.07;;
22549;SDS011;11441;57.164;-2.120;2023-04-15T00:35:21;13.53;;;5.67;;
22549;SDS011;11441;57.164;-2.120;2023-04-15T00:37:49;25.50;;;6.50;;
22549;SDS011;11441;57.164;-2.120;2023-04-15T00:40:34;23.87;;;5.60;;
22549;SDS011;11441;57.164;-2.120;2023-04-15T00:43:01;27.65;;;6.80;;
22549;SDS011;11441;57.164;-2.120;2023-04-15T00:45:28;23.30;;;6.50;;
22549;SDS011;11441;57.164;-2.120;2023-04-15T00:47:55;33.27;;;7.23;;
22549;SDS011;11441;57.164;-2.120;2023-04-15T00:50:41;18.20;;;7.03;;
22549;SDS011;11441;57.164;-2.120;2023-04-15T00:53:07;21.90;;;7.23;;
22549;SDS011;11441;57.164;-2.120;2023-04-15T00:55:34;24.33;;;6.33;;
22549;SDS011;11441;57.164;-2.120;2023-04-15T00:58:01;19.93;;;6.77;;
22549;SDS011;11441;57.164;-2.120;2023-04-15T01:00:28;22.73;;;6.10;;
22549;SDS011;11441;57.164;-2.120;2023-04-15T01:02:57;20.35;;;6.72;;
22549;SDS011;11441;57.164;-2.120;2023-04-15T01:05:24;18.02;;;5.57;;
22549;SDS011;11441;57.164;-2.120;2023-04-15T01:07:52;16.37;;;5.93;;
22549;SDS011;11441;57.164;-2.120;2023-04-15T01:10:20;16.40;;;5.33;;
22549;SDS011;11441;57.164;-2.120;2023-04-15T01:13:05;11.02;;;4.70;;
22549;SDS011;11441;57.164;-2.120;2023-04-15T01:15:33;18.17;;;5.15;;
22549;SDS011;11441;57.164;-2.120;2023-04-15T01:18:01;14.13;;;5.50;;
22549;SDS011;11441;57.164;-2.120;2023-04-15T01:20:28;19.45;;;7.07;;
22549;SDS011;11441;57.164;-2.120;2023-04-15T01:22:55;32.63;;;7.70;;
22549;SDS011;11441;57.164;-2.120;2023-04-15T01:25:32;40.28;;;6.43;;
22549;SDS011;11441;57.164;-2.120;2023-04-15T01:28:00;20.83;;;5.30;;
22549;SDS011;11441;57.164;-2.120;2023-04-15T01:30:27;28.88;;;6.10;;
22549;SDS011;11441;57.164;-2.120;2023-04-15T01:32:55;21.73;;;6.50;;
22549;SDS011;11441;57.164;-2.120;2023-04-15T01:35:22;34.07;;;6.23;;
22549;SDS011;11441;57.164;-2.120;2023-04-15T01:37:50;20.70;;;6.33;;
22549;SDS011;11441;57.164;-2.120;2023-04-15T01:40:17;13.73;;;4.47;;
22549;SDS011;11441;57.164;-2.120;2023-04-15T01:42:43;14.97;;;5.80;;
22549;SDS011;11441;57.164;-2.120;2023-04-15T01:45:11;13.50;;;4.40;;
22549;SDS011;11441;57.164;-2.120;2023-04-15T01:47:39;12.67;;;5.07;;
22549;SDS011;11441;57.164;-2.120;2023-04-15T01:50:08;15.43;;;5.50;;
22549;SDS011;11441;57.164;-2.120;2023-04-15T01:52:35;12.07;;;5.03;;
22549;SDS011;11441;57.164;-2.120;2023-04-15T01:55:03;10.30;;;3.83;;
22549;SDS011;11441;57.164;-2.120;2023-04-15T01:57:30;12.53;;;5.23;;
22549;SDS011;11441;57.164;-2.120;2023-04-15T01:59:57;11.93;;;5.57;;
22549;SDS011;11441;57.164;-2.120;2023-04-15T02:02:24;13.85;;;6.28;;
22549;SDS011;11441;57.164;-2.120;2023-04-15T02:04:54;20.67;;;7.20;;
22549;SDS011;11441;57.164;-2.120;2023-04-15T02:10:10;13.13;;;6.03;;
22549;SDS011;11441;57.164;-2.120;2023-04-15T02:12:39;14.00;;;6.90;;
22549;SDS011;11441;57.164;-2.120;2023-04-15T02:15:06;15.10;;;5.25;;
22549;SDS011;11441;57.164;-2.120;2023-04-15T02:17:33;19.17;;;6.40;;
22549;SDS011;11441;57.164;-2.120;2023-04-15T02:20:01;14.23;;;7.13;;
22549;SDS011;11441;57.164;-2.120;2023-04-15T02:22:30;14.13;;;6.60;;
22549;SDS011;11441;57.164;-2.120;2023-04-15T02:24:57;9.13;;;5.47;;
22549;SDS011;11441;57.164;-2.120;2023-04-15T02:30:10;10.83;;;5.43;;
22549;SDS011;11441;57.164;-2.120;2023-04-15T02:32:36;7.43;;;4.10;;
22549;SDS011;11441;57.164;-2.120;2023-04-15T02:35:04;7.07;;;4.97;;
22549;SDS011;11441;57.164;-2.120;2023-04-15T02:37:49;14.73;;;5.07;;
22549;SDS011;11441;57.164;-2.120;2023-04-15T02:40:17;12.20;;;5.30;;
22549;SDS011;11441;57.164;-2.120;2023-04-15T02:42:44;8.32;;;4.53;;
22549;SDS011;11441;57.164;-2.120;2023-04-15T02:45:14;6.90;;;5.10;;
22549;SDS011;11441;57.164;-2.120;2023-04-15T02:47:43;10.30;;;4.97;;
22549;SDS011;11441;57.164;-2.120;2023-04-15T02:50:11;9.07;;;5.17;;
22549;SDS011;11441;57.164;-2.120;2023-04-15T02:52:40;17.27;;;5.83;;
22549;SDS011;11441;57.164;-2.120;2023-04-15T02:55:08;9.57;;;5.50;;
22549;SDS011;11441;57.164;-2.120;2023-04-15T02:57:36;9.97;;;6.40;;
22549;SDS011;11441;57.164;-2.120;2023-04-15T03:00:06;10.98;;;5.90;;
22549;SDS011;11441;57.164;-2.120;2023-04-15T03:02:37;12.57;;;5.37;;
22549;SDS011;11441;57.164;-2.120;2023-04-15T03:05:05;14.38;;;6.10;;
22549;SDS011;11441;57.164;-2.120;2023-04-15T03:07:33;11.33;;;6.70;;
22549;SDS011;11441;57.164;-2.120;2023-04-15T03:10:01;9.30;;;5.40;;
22549;SDS011;11441;57.164;-2.120;2023-04-15T03:12:28;12.03;;;5.40;;
22549;SDS011;11441;57.164;-2.120;2023-04-15T03:14:56;8.68;;;4.97;;
22549;SDS011;11441;57.164;-2.120;2023-04-15T03:17:31;12.40;;;6.37;;
22549;SDS011;11441;57.164;-2.120;2023-04-15T03:20:00;12.13;;;5.47;;
22549;SDS011;11441;57.164;-2.120;2023-04-15T03:22:28;9.87;;;5.80;;
22549;SDS011;11441;57.164;-2.120;2023-04-15T03:24:55;9.77;;;6.07;;
22549;SDS011;11441;57.164;-2.120;2023-04-15T03:27:22;13.03;;;6.67;;
22549;SDS011;11441;57.164;-2.120;2023-04-15T03:29:52;17.33;;;6.20;;
22549;SDS011;11441;57.164;-2.120;2023-04-15T03:32:21;11.40;;;4.80;;
22549;SDS011;11441;57.164;-2.120;2023-04-15T03:34:48;11.57;;;5.57;;
22549;SDS011;11441;57.164;-2.120;2023-04-15T03:37:15;9.67;;;4.77;;
22549;SDS011;11441;57.164;-2.120;2023-04-15T03:39:41;9.33;;;4.90;;
22549;SDS011;11441;57.164;-2.120;2023-04-15T03:42:08;9.90;;;4.70;;
22549;SDS011;11441;57.164;-2.120;2023-04-15T03:44:35;12.10;;;6.93;;
22549;SDS011;11441;57.164;-2.120;2023-04-15T03:47:02;10.83;;;6.37;;
22549;SDS011;11441;57.164;-2.120;2023-04-15T03:49:29;16.13;;;8.43;;
22549;SDS011;11441;57.164;-2.120;2023-04-15T03:51:56;16.37;;;8.87;;
22549;SDS011;11441;57.164;-2.120;2023-04-15T03:54:22;12.03;;;8.17;;
22549;SDS011;11441;57.164;-2.120;2023-04-15T03:56:49;12.07;;;7.20;;
22549;SDS011;11441;57.164;-2.120;2023-04-15T04:02:02;18.20;;;8.65;;
22549;SDS011;11441;57.164;-2.120;2023-04-15T04:04:28;21.80;;;9.43;;
22549;SDS011;11441;57.164;-2.120;2023-04-15T04:06:55;14.17;;;8.37;;
22549;SDS011;11441;57.164;-2.120;2023-04-15T04:09:22;12.07;;;6.93;;
22549;SDS011;11441;57.164;-2.120;2023-04-15T04:11:49;10.97;;;5.73;;
22549;SDS011;11441;57.164;-2.120;2023-04-15T04:14:16;10.93;;;6.65;;
22549;SDS011;11441;57.164;-2.120;2023-04-15T04:16:42;13.40;;;8.33;;
22549;SDS011;11441;57.164;-2.120;2023-04-15T04:19:10;13.97;;;8.43;;
22549;SDS011;11441;57.164;-2.120;2023-04-15T04:21:37;20.47;;;11.03;;
22549;SDS011;11441;57.164;-2.120;2023-04-15T04:24:05;15.77;;;8.80;;
22549;SDS011;11441;57.164;-2.120;2023-04-15T04:26:31;19.40;;;11.33;;
22549;SDS011;11441;57.164;-2.120;2023-04-15T04:28:58;15.40;;;9.40;;
22549;SDS011;11441;57.164;-2.120;2023-04-15T04:31:44;20.33;;;9.83;;
22549;SDS011;11441;57.164;-2.120;2023-04-15T04:34:12;20.13;;;10.47;;
22549;SDS011;11441;57.164;-2.120;2023-04-15T04:36:39;17.73;;;9.20;;
22549;SDS011;11441;57.164;-2.120;2023-04-15T04:39:05;22.10;;;10.73;;
22549;SDS011;11441;57.164;-2.120;2023-04-15T04:41:33;19.37;;;11.27;;
22549;SDS011;11441;57.164;-2.120;2023-04-15T04:44:00;21.23;;;11.23;;
22549;SDS011;11441;57.164;-2.120;2023-04-15T04:46:45;20.20;;;11.13;;
22549;SDS011;11441;57.164;-2.120;2023-04-15T04:49:29;24.77;;;11.87;;
22549;SDS011;11441;57.164;-2.120;2023-04-15T04:51:56;21.08;;;12.55;;
22549;SDS011;11441;57.164;-2.120;2023-04-15T04:54:41;31.17;;;14.03;;
22549;SDS011;11441;57.164;-2.120;2023-04-15T04:57:08;34.10;;;14.87;;
22549;SDS011;11441;57.164;-2.120;2023-04-15T04:59:35;29.40;;;15.63;;
22549;SDS011;11441;57.164;-2.120;2023-04-15T05:02:02;28.63;;;14.73;;
22549;SDS011;11441;57.164;-2.120;2023-04-15T05:04:29;32.37;;;13.97;;
22549;SDS011;11441;57.164;-2.120;2023-04-15T05:06:57;57.83;;;17.27;;
22549;SDS011;11441;57.164;-2.120;2023-04-15T05:09:24;48.23;;;15.93;;
22549;SDS011;11441;57.164;-2.120;2023-04-15T05:11:51;41.63;;;14.93;;
22549;SDS011;11441;57.164;-2.120;2023-04-15T05:14:18;41.47;;;16.83;;
22549;SDS011;11441;57.164;-2.120;2023-04-15T05:16:48;47.90;;;15.50;;
22549;SDS011;11441;57.164;-2.120;2023-04-15T05:19:34;43.03;;;14.23;;
22549;SDS011;11441;57.164;-2.120;2023-04-15T05:22:01;29.00;;;13.30;;
22549;SDS011;11441;57.164;-2.120;2023-04-15T05:24:28;32.80;;;10.83;;
22549;SDS011;11441;57.164;-2.120;2023-04-15T05:26:55;24.67;;;10.60;;
22549;SDS011;11441;57.164;-2.120;2023-04-15T05:29:40;38.10;;;11.37;;
22549;SDS011;11441;57.164;-2.120;2023-04-15T05:32:07;28.33;;;10.97;;
22549;SDS011;11441;57.164;-2.120;2023-04-15T05:34:34;21.43;;;8.97;;
22549;SDS011;11441;57.164;-2.120;2023-04-15T05:37:01;39.00;;;12.67;;
22549;SDS011;11441;57.164;-2.120;2023-04-15T05:39:28;47.57;;;12.53;;
22549;SDS011;11441;57.164;-2.120;2023-04-15T05:41:54;44.03;;;12.53;;
22549;SDS011;11441;57.164;-2.120;2023-04-15T05:44:23;28.57;;;11.97;;
22549;SDS011;11441;57.164;-2.120;2023-04-15T05:47:08;19.23;;;10.43;;
22549;SDS011;11441;57.164;-2.120;2023-04-15T05:49:36;13.57;;;6.80;;
22549;SDS011;11441;57.164;-2.120;2023-04-15T05:52:03;10.03;;;5.80;;
22549;SDS011;11441;57.164;-2.120;2023-04-15T05:54:48;7.43;;;6.13;;
22549;SDS011;11441;57.164;-2.120;2023-04-15T05:57:14;11.87;;;7.93;;
22549;SDS011;11441;57.164;-2.120;2023-04-15T05:59:42;12.10;;;8.33;;
22549;SDS011;11441;57.164;-2.120;2023-04-15T06:02:09;17.83;;;11.30;;
22549;SDS011;11441;57.164;-2.120;2023-04-15T06:04:36;20.03;;;13.37;;
22549;SDS011;11441;57.164;-2.120;2023-04-15T06:07:03;25.73;;;17.27;;
22549;SDS011;11441;57.164;-2.120;2023-04-15T06:09:30;26.07;;;18.73;;
22549;SDS011;11441;57.164;-2.120;2023-04-15T06:11:57;20.70;;;14.80;;
22549;SDS011;11441;57.164;-2.120;2023-04-15T06:14:24;22.97;;;15.20;;
22549;SDS011;11441;57.164;-2.120;2023-04-15T06:16:51;17.37;;;12.77;;
22549;SDS011;11441;57.164;-2.120;2023-04-15T06:19:18;17.37;;;12.97;;
22549;SDS011;11441;57.164;-2.120;2023-04-15T06:21:44;20.10;;;12.70;;
22549;SDS011;11441;57.164;-2.120;2023-04-15T06:24:11;15.00;;;11.00;;
22549;SDS011;11441;57.164;-2.120;2023-04-15T06:26:38;10.83;;;8.17;;
22549;SDS011;11441;57.164;-2.120;2023-04-15T06:29:05;9.87;;;6.57;;
22549;SDS011;11441;57.164;-2.120;2023-04-15T06:31:32;7.93;;;6.10;;
22549;SDS011;11441;57.164;-2.120;2023-04-15T06:33:59;7.07;;;5.60;;
22549;SDS011;11441;57.164;-2.120;2023-04-15T06:36:43;8.43;;;5.33;;
22549;SDS011;11441;57.164;-2.120;2023-04-15T06:39:10;5.80;;;4.43;;
22549;SDS011;11441;57.164;-2.120;2023-04-15T06:41:37;4.60;;;3.93;;
22549;SDS011;11441;57.164;-2.120;2023-04-15T06:44:04;4.67;;;3.53;;
22549;SDS011;11441;57.164;-2.120;2023-04-15T06:46:31;3.47;;;3.10;;
22549;SDS011;11441;57.164;-2.120;2023-04-15T06:48:58;4.17;;;3.50;;
22549;SDS011;11441;57.164;-2.120;2023-04-15T06:51:25;8.07;;;3.30;;
22549;SDS011;11441;57.164;-2.120;2023-04-15T06:53:52;3.93;;;3.30;;
22549;SDS011;11441;57.164;-2.120;2023-04-15T06:56:19;6.27;;;3.13;;
22549;SDS011;11441;57.164;-2.120;2023-04-15T06:58:46;4.77;;;3.63;;
22549;SDS011;11441;57.164;-2.120;2023-04-15T07:01:31;10.17;;;3.47;;
22549;SDS011;11441;57.164;-2.120;2023-04-15T07:03:58;3.63;;;3.27;;
22549;SDS011;11441;57.164;-2.120;2023-04-15T07:06:25;4.87;;;4.10;;
22549;SDS011;11441;57.164;-2.120;2023-04-15T07:08:53;3.93;;;3.57;;
22549;SDS011;11441;57.164;-2.120;2023-04-15T07:11:21;4.73;;;3.73;;
22549;SDS011;11441;57.164;-2.120;2023-04-15T07:13:47;5.07;;;3.70;;
22549;SDS011;11441;57.164;-2.120;2023-04-15T07:16:14;5.67;;;4.23;;
22549;SDS011;11441;57.164;-2.120;2023-04-15T07:18:41;7.23;;;5.43;;
22549;SDS011;11441;57.164;-2.120;2023-04-15T07:21:08;5.67;;;4.93;;
22549;SDS011;11441;57.164;-2.120;2023-04-15T07:23:36;6.03;;;5.43;;
22549;SDS011;11441;57.164;-2.120;2023-04-15T07:26:02;11.67;;;8.13;;
22549;SDS011;11441;57.164;-2.120;2023-04-15T07:28:29;11.73;;;8.27;;
22549;SDS011;11441;57.164;-2.120;2023-04-15T07:30:56;9.60;;;7.27;;
22549;SDS011;11441;57.164;-2.120;2023-04-15T07:33:23;7.27;;;5.97;;
22549;SDS011;11441;57.164;-2.120;2023-04-15T07:35:50;11.37;;;8.43;;
22549;SDS011;11441;57.164;-2.120;2023-04-15T07:38:17;13.37;;;9.47;;
22549;SDS011;11441;57.164;-2.120;2023-04-15T07:40:45;18.43;;;10.27;;
22549;SDS011;11441;57.164;-2.120;2023-04-15T07:43:12;15.80;;;11.20;;
22549;SDS011;11441;57.164;-2.120;2023-04-15T07:45:39;16.27;;;10.73;;
22549;SDS011;11441;57.164;-2.120;2023-04-15T07:48:06;13.03;;;9.37;;
22549;SDS011;11441;57.164;-2.120;2023-04-15T07:50:33;15.97;;;10.60;;
22549;SDS011;11441;57.164;-2.120;2023-04-15T07:53:00;21.73;;;13.87;;
22549;SDS011;11441;57.164;-2.120;2023-04-15T07:55:27;16.47;;;11.87;;
22549;SDS011;11441;57.164;-2.120;2023-04-15T07:57:55;18.27;;;12.10;;
22549;SDS011;11441;57.164;-2.120;2023-04-15T08:00:22;20.93;;;13.23;;
22549;SDS011;11441;57.164;-2.120;2023-04-15T08:02:49;19.73;;;12.93;;
22549;SDS011;11441;57.164;-2.120;2023-04-15T08:05:35;17.30;;;11.30;;
22549;SDS011;11441;57.164;-2.120;2023-04-15T08:08:02;18.10;;;11.33;;
22549;SDS011;11441;57.164;-2.120;2023-04-15T08:10:29;17.47;;;11.87;;
22549;SDS011;11441;57.164;-2.120;2023-04-15T08:12:56;14.07;;;10.07;;
22549;SDS011;11441;57.164;-2.120;2023-04-15T08:15:23;16.87;;;9.77;;
22549;SDS011;11441;57.164;-2.120;2023-04-15T08:17:50;20.33;;;12.17;;
22549;SDS011;11441;57.164;-2.120;2023-04-15T08:20:17;16.30;;;9.63;;
22549;SDS011;11441;57.164;-2.120;2023-04-15T08:22:44;13.47;;;8.63;;
22549;SDS011;11441;57.164;-2.120;2023-04-15T08:25:13;12.80;;;7.87;;
22549;SDS011;11441;57.164;-2.120;2023-04-15T08:27:40;9.20;;;5.97;;
22549;SDS011;11441;57.164;-2.120;2023-04-15T08:30:07;8.63;;;4.33;;
22549;SDS011;11441;57.164;-2.120;2023-04-15T08:32:34;8.30;;;5.20;;
22549;SDS011;11441;57.164;-2.120;2023-04-15T08:35:01;7.20;;;3.63;;
22549;SDS011;11441;57.164;-2.120;2023-04-15T08:37:27;7.70;;;4.20;;
22549;SDS011;11441;57.164;-2.120;2023-04-15T08:39:54;6.87;;;3.67;;
22549;SDS011;11441;57.164;-2.120;2023-04-15T08:42:31;7.33;;;3.97;;
22549;SDS011;11441;57.164;-2.120;2023-04-15T08:45:03;4.50;;;2.92;;
22549;SDS011;11441;57.164;-2.120;2023-04-15T08:47:31;3.30;;;2.30;;
22549;SDS011;11441;57.164;-2.120;2023-04-15T08:50:00;5.37;;;2.67;;
22549;SDS011;11441;57.164;-2.120;2023-04-15T08:52:30;3.70;;;1.90;;
22549;SDS011;11441;57.164;-2.120;2023-04-15T08:54:57;7.93;;;2.95;;
22549;SDS011;11441;57.164;-2.120;2023-04-15T08:57:27;4.10;;;2.00;;
22549;SDS011;11441;57.164;-2.120;2023-04-15T08:59:54;2.80;;;1.90;;
22549;SDS011;11441;57.164;-2.120;2023-04-15T09:02:22;5.15;;;1.90;;
22549;SDS011;11441;57.164;-2.120;2023-04-15T09:04:52;4.47;;;2.17;;
22549;SDS011;11441;57.164;-2.120;2023-04-15T09:07:19;6.63;;;2.47;;
22549;SDS011;11441;57.164;-2.120;2023-04-15T09:09:46;7.97;;;3.33;;
22549;SDS011;11441;57.164;-2.120;2023-04-15T09:12:35;6.50;;;3.07;;
22549;SDS011;11441;57.164;-2.120;2023-04-15T09:15:02;4.72;;;3.08;;
22549;SDS011;11441;57.164;-2.120;2023-04-15T09:17:31;5.93;;;3.97;;
22549;SDS011;11441;57.164;-2.120;2023-04-15T09:22:36;8.50;;;3.80;;
22549;SDS011;11441;57.164;-2.120;2023-04-15T09:27:50;6.13;;;2.95;;
22549;SDS011;11441;57.164;-2.120;2023-04-15T09:30:18;6.93;;;3.00;;
22549;SDS011;11441;57.164;-2.120;2023-04-15T09:32:52;6.30;;;3.35;;
22549;SDS011;11441;57.164;-2.120;2023-04-15T09:35:24;6.70;;;2.97;;
22549;SDS011;11441;57.164;-2.120;2023-04-15T09:37:53;4.63;;;2.38;;
22549;SDS011;11441;57.164;-2.120;2023-04-15T09:40:49;5.82;;;2.47;;
22549;SDS011;11441;57.164;-2.120;2023-04-15T09:43:16;6.85;;;3.25;;
22549;SDS011;11441;57.164;-2.120;2023-04-15T09:45:47;4.22;;;3.25;;
22549;SDS011;11441;57.164;-2.120;2023-04-15T09:48:22;9.95;;;2.90;;
22549;SDS011;11441;57.164;-2.120;2023-04-15T09:50:52;6.13;;;2.85;;
22549;SDS011;11441;57.164;-2.120;2023-04-15T09:53:20;6.13;;;2.80;;
22549;SDS011;11441;57.164;-2.120;2023-04-15T09:55:52;6.30;;;3.08;;
22549;SDS011;11441;57.164;-2.120;2023-04-15T09:58:24;8.43;;;4.15;;
22549;SDS011;11441;57.164;-2.120;2023-04-15T10:00:53;7.50;;;3.58;;
22549;SDS011;11441;57.164;-2.120;2023-04-15T10:05:54;5.78;;;3.50;;
22549;SDS011;11441;57.164;-2.120;2023-04-15T10:08:23;9.52;;;3.35;;
22549;SDS011;11441;57.164;-2.120;2023-04-15T10:10:52;3.63;;;2.60;;
22549;SDS011;11441;57.164;-2.120;2023-04-15T10:13:36;5.97;;;3.20;;
22549;SDS011;11441;57.164;-2.120;2023-04-15T10:16:05;8.55;;;2.30;;
22549;SDS011;11441;57.164;-2.120;2023-04-15T10:18:43;6.45;;;2.25;;
22549;SDS011;11441;57.164;-2.120;2023-04-15T10:21:11;10.43;;;2.13;;
22549;SDS011;11441;57.164;-2.120;2023-04-15T10:23:46;4.32;;;1.88;;
22549;SDS011;11441;57.164;-2.120;2023-04-15T10:26:13;4.30;;;2.47;;
22549;SDS011;11441;57.164;-2.120;2023-04-15T10:28:42;3.92;;;2.47;;
22549;SDS011;11441;57.164;-2.120;2023-04-15T10:31:11;5.93;;;2.58;;
22549;SDS011;11441;57.164;-2.120;2023-04-15T10:33:41;7.57;;;2.58;;
22549;SDS011;11441;57.164;-2.120;2023-04-15T10:36:09;11.00;;;2.50;;
22549;SDS011;11441;57.164;-2.120;2023-04-15T10:38:40;4.30;;;2.25;;
22549;SDS011;11441;57.164;-2.120;2023-04-15T10:41:22;6.30;;;1.85;;
22549;SDS011;11441;57.164;-2.120;2023-04-15T10:46:38;6.97;;;2.53;;
22549;SDS011;11441;57.164;-2.120;2023-04-15T10:51:38;10.60;;;2.03;;
22549;SDS011;11441;57.164;-2.120;2023-04-15T10:54:12;5.93;;;1.90;;
22549;SDS011;11441;57.164;-2.120;2023-04-15T10:56:41;6.18;;;2.25;;
22549;SDS011;11441;57.164;-2.120;2023-04-15T10:59:11;4.95;;;2.47;;
22549;SDS011;11441;57.164;-2.120;2023-04-15T11:10:02;6.45;;;2.05;;
22549;SDS011;11441;57.164;-2.120;2023-04-15T11:12:51;10.27;;;1.75;;
22549;SDS011;11441;57.164;-2.120;2023-04-15T11:15:43;4.57;;;1.50;;
22549;SDS011;11441;57.164;-2.120;2023-04-15T11:18:20;6.82;;;2.40;;
22549;SDS011;11441;57.164;-2.120;2023-04-15T11:23:18;4.97;;;2.10;;
22549;SDS011;11441;57.164;-2.120;2023-04-15T11:25:45;4.55;;;1.48;;
22549;SDS011;11441;57.164;-2.120;2023-04-15T11:28:14;9.88;;;2.05;;
22549;SDS011;11441;57.164;-2.120;2023-04-15T11:30:41;4.57;;;1.70;;
22549;SDS011;11441;57.164;-2.120;2023-04-15T11:33:08;4.90;;;1.52;;
22549;SDS011;11441;57.164;-2.120;2023-04-15T11:35:37;6.22;;;1.73;;
22549;SDS011;11441;57.164;-2.120;2023-04-15T11:38:12;3.00;;;1.13;;
22549;SDS011;11441;57.164;-2.120;2023-04-15T11:40:41;5.10;;;1.42;;
22549;SDS011;11441;57.164;-2.120;2023-04-15T11:43:13;3.95;;;1.13;;
22549;SDS011;11441;57.164;-2.120;2023-04-15T11:45:59;4.78;;;1.02;;
22549;SDS011;11441;57.164;-2.120;2023-04-15T11:48:29;1.73;;;0.80;;
22549;SDS011;11441;57.164;-2.120;2023-04-15T11:51:01;4.32;;;1.63;;
22549;SDS011;11441;57.164;-2.120;2023-04-15T11:53:50;2.50;;;1.50;;
22549;SDS011;11441;57.164;-2.120;2023-04-15T11:56:18;4.25;;;1.30;;
22549;SDS011;11441;57.164;-2.120;2023-04-15T11:58:46;5.00;;;1.25;;
22549;SDS011;11441;57.164;-2.120;2023-04-15T12:01:16;8.48;;;1.70;;
22549;SDS011;11441;57.164;-2.120;2023-04-15T12:03:44;4.60;;;1.58;;
22549;SDS011;11441;57.164;-2.120;2023-04-15T12:11:42;6.07;;;1.65;;
22549;SDS011;11441;57.164;-2.120;2023-04-15T12:16:46;4.95;;;1.60;;
22549;SDS011;11441;57.164;-2.120;2023-04-15T12:19:36;6.65;;;1.95;;
22549;SDS011;11441;57.164;-2.120;2023-04-15T12:22:05;3.47;;;1.70;;
22549;SDS011;11441;57.164;-2.120;2023-04-15T12:24:36;2.78;;;1.02;;
22549;SDS011;11441;57.164;-2.120;2023-04-15T12:27:08;5.05;;;1.63;;
22549;SDS011;11441;57.164;-2.120;2023-04-15T12:29:37;4.80;;;1.52;;
22549;SDS011;11441;57.164;-2.120;2023-04-15T12:32:09;4.78;;;1.02;;
22549;SDS011;11441;57.164;-2.120;2023-04-15T12:34:41;6.35;;;1.10;;
22549;SDS011;11441;57.164;-2.120;2023-04-15T12:40:13;8.45;;;1.58;;
22549;SDS011;11441;57.164;-2.120;2023-04-15T12:42:40;2.45;;;0.80;;
22549;SDS011;11441;57.164;-2.120;2023-04-15T12:45:07;6.97;;;1.33;;
22549;SDS011;11441;57.164;-2.120;2023-04-15T12:47:33;2.80;;;1.20;;
22549;SDS011;11441;57.164;-2.120;2023-04-15T12:50:01;3.03;;;1.20;;
22549;SDS011;11441;57.164;-2.120;2023-04-15T12:52:28;5.90;;;1.30;;
22549;SDS011;11441;57.164;-2.120;2023-04-15T12:54:55;3.65;;;1.45;;
22549;SDS011;11441;57.164;-2.120;2023-04-15T12:57:22;3.88;;;1.17;;
22549;SDS011;11441;57.164;-2.120;2023-04-15T12:59:48;1.33;;;0.50;;
22549;SDS011;11441;57.164;-2.120;2023-04-15T13:02:15;4.38;;;0.88;;
22549;SDS011;11441;57.164;-2.120;2023-04-15T13:04:42;6.03;;;0.98;;
22549;SDS011;11441;57.164;-2.120;2023-04-15T13:07:09;2.00;;;0.70;;
22549;SDS011;11441;57.164;-2.120;2023-04-15T13:09:36;4.93;;;1.05;;
22549;SDS011;11441;57.164;-2.120;2023-04-15T13:12:03;1.55;;;0.70;;
22549;SDS011;11441;57.164;-2.120;2023-04-15T13:14:30;4.18;;;0.40;;
22549;SDS011;11441;57.164;-2.120;2023-04-15T13:16:57;6.03;;;1.00;;
22549;SDS011;11441;57.164;-2.120;2023-04-15T13:19:24;3.50;;;0.95;;
22549;SDS011;11441;57.164;-2.120;2023-04-15T13:21:52;5.45;;;1.08;;
22549;SDS011;11441;57.164;-2.120;2023-04-15T13:24:18;3.25;;;0.95;;
22549;SDS011;11441;57.164;-2.120;2023-04-15T13:26:45;1.13;;;0.50;;
22549;SDS011;11441;57.164;-2.120;2023-04-15T13:29:15;2.05;;;0.90;;
22549;SDS011;11441;57.164;-2.120;2023-04-15T13:31:42;3.03;;;0.90;;
22549;SDS011;11441;57.164;-2.120;2023-04-15T13:34:09;5.18;;;1.10;;
22549;SDS011;11441;57.164;-2.120;2023-04-15T13:36:36;4.30;;;0.88;;
22549;SDS011;11441;57.164;-2.120;2023-04-15T13:39:02;2.75;;;1.08;;
22549;SDS011;11441;57.164;-2.120;2023-04-15T13:41:30;2.80;;;0.80;;
22549;SDS011;11441;57.164;-2.120;2023-04-15T13:43:57;3.00;;;1.00;;
22549;SDS011;11441;57.164;-2.120;2023-04-15T13:46:24;2.92;;;0.60;;
22549;SDS011;11441;57.164;-2.120;2023-04-15T13:48:51;2.58;;;0.63;;
22549;SDS011;11441;57.164;-2.120;2023-04-15T13:51:18;5.07;;;0.70;;
22549;SDS011;11441;57.164;-2.120;2023-04-15T13:53:45;3.97;;;0.77;;
22549;SDS011;11441;57.164;-2.120;2023-04-15T13:56:12;3.28;;;0.55;;
22549;SDS011;11441;57.164;-2.120;2023-04-15T13:58:39;2.75;;;0.75;;
22549;SDS011;11441;57.164;-2.120;2023-04-15T14:01:06;1.92;;;0.60;;
22549;SDS011;11441;57.164;-2.120;2023-04-15T14:03:33;4.03;;;1.15;;
22549;SDS011;11441;57.164;-2.120;2023-04-15T14:06:02;2.45;;;0.60;;
22549;SDS011;11441;57.164;-2.120;2023-04-15T14:08:29;4.20;;;1.05;;
22549;SDS011;11441;57.164;-2.120;2023-04-15T14:10:57;2.25;;;0.40;;
22549;SDS011;11441;57.164;-2.120;2023-04-15T14:13:23;1.98;;;0.73;;
22549;SDS011;11441;57.164;-2.120;2023-04-15T14:15:50;3.47;;;0.88;;
22549;SDS011;11441;57.164;-2.120;2023-04-15T14:18:17;2.40;;;0.93;;
22549;SDS011;11441;57.164;-2.120;2023-04-15T14:23:31;3.75;;;1.00;;
22549;SDS011;11441;57.164;-2.120;2023-04-15T14:25:58;4.00;;;1.40;;
22549;SDS011;11441;57.164;-2.120;2023-04-15T14:28:25;4.07;;;0.90;;
22549;SDS011;11441;57.164;-2.120;2023-04-15T14:30:52;2.80;;;1.00;;
22549;SDS011;11441;57.164;-2.120;2023-04-15T14:33:19;2.47;;;0.77;;
22549;SDS011;11441;57.164;-2.120;2023-04-15T14:35:46;5.35;;;1.20;;
22549;SDS011;11441;57.164;-2.120;2023-04-15T14:38:12;3.88;;;0.77;;
22549;SDS011;11441;57.164;-2.120;2023-04-15T14:40:58;3.17;;;0.90;;
22549;SDS011;11441;57.164;-2.120;2023-04-15T14:43:25;4.47;;;1.40;;
22549;SDS011;11441;57.164;-2.120;2023-04-15T14:45:51;7.20;;;1.60;;
22549;SDS011;11441;57.164;-2.120;2023-04-15T14:48:19;2.72;;;1.35;;
22549;SDS011;11441;57.164;-2.120;2023-04-15T14:50:46;5.53;;;1.27;;
22549;SDS011;11441;57.164;-2.120;2023-04-15T14:53:12;4.10;;;1.15;;
22549;SDS011;11441;57.164;-2.120;2023-04-15T14:55:39;4.80;;;1.10;;
22549;SDS011;11441;57.164;-2.120;2023-04-15T14:58:06;3.55;;;0.70;;
22549;SDS011;11441;57.164;-2.120;2023-04-15T15:00:39;4.45;;;0.80;;
22549;SDS011;11441;57.164;-2.120;2023-04-15T15:03:08;4.55;;;1.10;;
22549;SDS011;11441;57.164;-2.120;2023-04-15T15:05:39;2.80;;;1.00;;
22549;SDS011;11441;57.164;-2.120;2023-04-15T15:08:10;1.55;;;0.98;;
22549;SDS011;11441;57.164;-2.120;2023-04-15T15:10:37;4.93;;;1.30;;
22549;SDS011;11441;57.164;-2.120;2023-04-15T15:13:15;6.40;;;1.10;;
22549;SDS011;11441;57.164;-2.120;2023-04-15T15:15:42;4.05;;;1.13;;
22549;SDS011;11441;57.164;-2.120;2023-04-15T15:18:28;3.22;;;1.10;;
22549;SDS011;11441;57.164;-2.120;2023-04-15T15:20:55;4.85;;;0.95;;
22549;SDS011;11441;57.164;-2.120;2023-04-15T15:23:22;8.10;;;1.30;;